Time;durP1;ratioP1;P1;durP2;ratioP2;P2;SDS_P1;SDS_P2;PMS_P1;PMS_P2;Temp;Humidity;BMP_temperature;BMP_pressure;BME280_temperature;BME280_humidity;BME280_pressure;Samples;Min_cycle;Max_cycle;Signal;HPM_P1;HPM_P2
2021/01/25 00:00:10;;;;;;;1.27;0.70;;;3.10;65.50;;;;;;5027047;28;20589;-72
2021/01/25 00:02:35;;;;;;;1.13;0.73;;;3.00;65.50;;;;;;5022790;28;20056;-71
2021/01/25 00:05:02;;;;;;;1.17;0.82;;;2.90;65.50;;;;;;5032589;28;20561;-71
2021/01/25 00:07:27;;;;;;;0.95;0.70;;;2.90;65.60;;;;;;5021661;28;20028;-71
2021/01/25 00:09:53;;;;;;;0.85;0.70;;;2.90;65.60;;;;;;5025148;28;20033;-71
2021/01/25 00:12:18;;;;;;;0.85;0.70;;;2.80;65.60;;;;;;5027130;28;20030;-72
2021/01/25 00:14:44;;;;;;;1.70;0.77;;;2.80;65.70;;;;;;5027571;28;20064;-71
2021/01/25 00:17:09;;;;;;;0.88;0.73;;;2.80;65.80;;;;;;5020684;28;20061;-71
2021/01/25 00:19:35;;;;;;;1.02;0.80;;;2.80;65.90;;;;;;5027504;28;20037;-71
2021/01/25 00:22:00;;;;;;;1.92;0.90;;;2.80;66.00;;;;;;5026233;28;20033;-70
2021/01/25 00:24:26;;;;;;;1.33;0.80;;;2.80;66.00;;;;;;5028119;28;20566;-71
2021/01/25 00:26:51;;;;;;;1.20;0.75;;;2.70;66.00;;;;;;5028013;28;20040;-71
2021/01/25 00:29:17;;;;;;;0.90;0.65;;;2.70;66.00;;;;;;5028334;28;20442;-71
2021/01/25 00:31:42;;;;;;;1.27;0.75;;;2.70;66.10;;;;;;5028093;28;20041;-71
2021/01/25 00:34:07;;;;;;;1.00;0.80;;;2.70;66.10;;;;;;5026673;28;20112;-71
2021/01/25 00:36:33;;;;;;;2.70;0.85;;;2.70;66.10;;;;;;5024449;28;20160;-72
2021/01/25 00:38:58;;;;;;;2.33;0.95;;;2.70;66.00;;;;;;5021752;28;20475;-72
2021/01/25 00:41:24;;;;;;;0.57;0.52;;;2.60;66.00;;;;;;5026487;28;20033;-71
2021/01/25 00:43:49;;;;;;;1.08;0.80;;;2.60;66.00;;;;;;5025546;28;20028;-72
2021/01/25 00:46:15;;;;;;;1.13;0.80;;;2.60;66.00;;;;;;5021347;28;20085;-71
2021/01/25 00:48:40;;;;;;;0.90;0.70;;;2.60;66.00;;;;;;5026159;28;20076;-71
2021/01/25 00:51:06;;;;;;;1.33;1.00;;;2.60;66.00;;;;;;5023211;28;20065;-71
2021/01/25 00:53:31;;;;;;;1.38;0.93;;;2.50;65.90;;;;;;5022592;28;20041;-72
2021/01/25 00:55:57;;;;;;;1.25;0.90;;;2.50;65.90;;;;;;5025965;28;20086;-71
2021/01/25 00:58:22;;;;;;;1.20;0.80;;;2.50;66.00;;;;;;5026997;28;20044;-71
2021/01/25 01:00:48;;;;;;;1.77;1.08;;;2.50;66.10;;;;;;5025994;28;20021;-71
2021/01/25 01:03:13;;;;;;;1.45;0.90;;;2.50;66.20;;;;;;5024492;28;20037;-72
2021/01/25 01:05:39;;;;;;;1.65;0.90;;;2.50;66.30;;;;;;5024310;28;20038;-72
2021/01/25 01:08:05;;;;;;;1.15;0.82;;;2.50;66.90;;;;;;5020941;28;20042;-72
2021/01/25 01:10:30;;;;;;;1.23;0.75;;;2.50;66.40;;;;;;5028350;28;20056;-71
2021/01/25 01:12:56;;;;;;;1.42;1.20;;;2.50;66.50;;;;;;5026685;28;20436;-71
2021/01/25 01:15:21;;;;;;;0.80;0.70;;;2.50;66.40;;;;;;5026767;28;20068;-71
2021/01/25 01:17:47;;;;;;;1.23;0.70;;;2.60;66.40;;;;;;5023544;28;20038;-71
2021/01/25 01:20:13;;;;;;;0.95;0.90;;;2.50;66.30;;;;;;5030501;28;20026;-72
2021/01/25 01:22:38;;;;;;;1.60;1.05;;;2.50;66.20;;;;;;5024126;28;20060;-71
2021/01/25 01:25:06;;;;;;;0.90;0.80;;;2.50;66.00;;;;;;5033294;28;20025;-71
2021/01/25 01:27:32;;;;;;;1.60;1.20;;;2.50;66.00;;;;;;5024761;28;20049;-71
2021/01/25 01:29:57;;;;;;;1.10;0.75;;;2.50;66.00;;;;;;5031149;28;20502;-71
2021/01/25 01:32:23;;;;;;;2.83;0.93;;;2.50;66.00;;;;;;5018820;28;20030;-71
2021/01/25 01:34:49;;;;;;;1.65;1.10;;;2.40;66.10;;;;;;5027145;28;20060;-71
2021/01/25 01:37:14;;;;;;;1.15;1.00;;;2.50;66.20;;;;;;5022855;28;20117;-71
2021/01/25 01:39:40;;;;;;;1.20;1.00;;;2.40;66.30;;;;;;5021834;28;20044;-71
2021/01/25 01:42:06;;;;;;;0.88;0.82;;;2.50;66.40;;;;;;5027547;28;20560;-71
2021/01/25 01:44:31;;;;;;;1.73;1.05;;;2.40;66.30;;;;;;5021905;28;20047;-71
2021/01/25 01:46:57;;;;;;;1.70;1.10;;;2.50;66.40;;;;;;5019318;28;20040;-71
2021/01/25 01:49:23;;;;;;;1.27;1.02;;;2.40;66.20;;;;;;5021336;28;20037;-71
2021/01/25 01:51:49;;;;;;;1.55;1.23;;;2.40;66.20;;;;;;5024005;28;20040;-71
2021/01/25 01:54:15;;;;;;;1.65;1.00;;;2.50;66.20;;;;;;5018104;28;20034;-72
2021/01/25 01:56:40;;;;;;;1.40;1.20;;;2.40;66.20;;;;;;5034408;28;20120;-72
2021/01/25 01:59:06;;;;;;;1.20;1.10;;;2.40;66.30;;;;;;5020920;28;20128;-71
2021/01/25 02:01:31;;;;;;;3.55;1.30;;;2.40;66.40;;;;;;5025226;28;20120;-71
2021/01/25 02:03:58;;;;;;;1.45;1.30;;;2.40;66.60;;;;;;5013019;28;20033;-71
2021/01/25 02:06:25;;;;;;;2.28;1.35;;;2.40;66.60;;;;;;5019430;28;20044;-71
2021/01/25 02:08:51;;;;;;;2.30;1.02;;;2.50;66.70;;;;;;5020227;28;20040;-71
2021/01/25 02:11:18;;;;;;;1.25;1.08;;;2.50;66.60;;;;;;5024158;28;20044;-71
2021/01/25 02:13:45;;;;;;;1.60;1.23;;;2.50;66.60;;;;;;5023958;28;20037;-72
2021/01/25 02:16:11;;;;;;;2.50;1.63;;;2.50;66.60;;;;;;5026562;28;20048;-71
2021/01/25 02:18:36;;;;;;;1.85;1.40;;;2.40;66.60;;;;;;5021657;28;20125;-71
2021/01/25 02:21:05;;;;;;;2.85;1.52;;;2.50;66.80;;;;;;5029647;28;20379;-71
2021/01/25 02:23:47;;;;;;;1.98;1.55;;;2.50;66.80;;;;;;5028993;28;20059;-71
2021/01/25 02:26:21;;;;;;;1.77;1.45;;;2.50;67.10;;;;;;5032098;23;20053;-80
2021/01/25 02:28:48;;;;;;;2.17;1.55;;;2.60;66.90;;;;;;5004746;28;20037;-80
2021/01/25 02:31:14;;;;;;;2.63;1.63;;;2.50;66.80;;;;;;5017477;28;20038;-80
2021/01/25 02:33:46;;;;;;;3.05;1.95;;;2.50;66.80;;;;;;5013244;28;20034;-79
2021/01/25 02:36:14;;;;;;;2.42;1.75;;;2.60;67.00;;;;;;5009443;28;20113;-79
2021/01/25 02:38:43;;;;;;;2.58;1.90;;;2.60;66.90;;;;;;4968642;28;20045;-80
2021/01/25 02:41:13;;;;;;;2.60;1.80;;;2.60;66.90;;;;;;4992883;28;20041;-81
2021/01/25 02:43:40;;;;;;;2.75;1.67;;;2.60;66.90;;;;;;4993088;28;20570;-81
2021/01/25 02:46:09;;;;;;;2.92;2.00;;;2.70;67.00;;;;;;4996969;28;20052;-80
2021/01/25 02:48:35;;;;;;;3.78;2.30;;;2.70;66.90;;;;;;4995697;28;20046;-80
2021/01/25 02:51:01;;;;;;;2.38;1.85;;;2.60;66.80;;;;;;4992509;28;20030;-79
2021/01/25 02:53:27;;;;;;;3.33;3.03;;;2.60;66.70;;;;;;4991887;28;20391;-79
2021/01/25 02:55:54;;;;;;;3.03;2.20;;;2.70;66.60;;;;;;4993411;28;20034;-80
2021/01/25 02:58:21;;;;;;;2.53;2.05;;;2.70;66.60;;;;;;4992984;28;20046;-80
2021/01/25 03:00:48;;;;;;;2.47;2.20;;;2.60;66.50;;;;;;4992619;28;20045;-80
2021/01/25 03:03:15;;;;;;;2.35;1.70;;;2.70;66.70;;;;;;4992789;28;20034;-80
2021/01/25 03:05:40;;;;;;;3.20;2.25;;;2.70;66.70;;;;;;4993816;28;20030;-80
2021/01/25 03:08:07;;;;;;;2.40;2.08;;;2.70;66.80;;;;;;4992062;28;20041;-80
2021/01/25 03:10:32;;;;;;;2.80;2.20;;;2.60;66.80;;;;;;4983065;28;20495;-81
2021/01/25 03:13:02;;;;;;;2.55;2.00;;;2.70;66.80;;;;;;4977890;28;20030;-79
2021/01/25 03:15:28;;;;;;;4.07;2.15;;;2.70;66.80;;;;;;4997509;28;20027;-80
2021/01/25 03:18:14;;;;;;;2.88;1.95;;;2.70;66.80;;;;;;4992420;28;20042;-80
2021/01/25 03:20:39;;;;;;;3.50;1.98;;;2.70;67.00;;;;;;4994013;28;20026;-80
2021/01/25 03:23:05;;;;;;;2.28;1.90;;;2.70;66.60;;;;;;4989640;28;20030;-80
2021/01/25 03:25:30;;;;;;;3.92;2.33;;;2.70;66.60;;;;;;4995181;28;20037;-80
2021/01/25 03:27:56;;;;;;;3.17;2.38;;;2.70;66.70;;;;;;4993285;28;20038;-81
2021/01/25 03:30:21;;;;;;;4.10;2.80;;;2.70;66.70;;;;;;4990443;28;20081;-80
2021/01/25 03:32:47;;;;;;;4.10;2.35;;;2.80;66.80;;;;;;4988694;28;20115;-80
2021/01/25 03:35:13;;;;;;;3.00;2.30;;;2.70;66.80;;;;;;4992757;28;20042;-80
2021/01/25 03:37:38;;;;;;;2.95;2.25;;;2.70;66.80;;;;;;4992133;28;20384;-80
2021/01/25 03:40:08;;;;;;;2.80;2.47;;;2.70;66.80;;;;;;4993065;28;20072;-80
2021/01/25 03:42:34;;;;;;;3.08;2.55;;;2.80;67.30;;;;;;4992442;28;20034;-79
2021/01/25 03:45:00;;;;;;;3.53;2.53;;;2.70;66.80;;;;;;4993679;28;20026;-81
2021/01/25 03:47:26;;;;;;;3.78;2.97;;;2.70;66.80;;;;;;4993468;28;20034;-80
2021/01/25 03:49:51;;;;;;;2.80;2.30;;;2.70;66.90;;;;;;4995533;28;20085;-81
2021/01/25 03:52:17;;;;;;;3.92;3.00;;;2.70;66.90;;;;;;4994235;28;20042;-80
2021/01/25 03:54:42;;;;;;;4.00;2.95;;;2.70;67.00;;;;;;4992970;28;20034;-80
2021/01/25 03:57:08;;;;;;;3.97;2.95;;;2.70;67.00;;;;;;4995180;28;20069;-80
2021/01/25 03:59:33;;;;;;;4.05;2.88;;;2.70;66.90;;;;;;5000010;28;20042;-80
2021/01/25 04:01:59;;;;;;;3.67;2.70;;;2.70;66.80;;;;;;4998025;28;20439;-81
2021/01/25 04:04:25;;;;;;;3.50;2.78;;;2.80;66.90;;;;;;5000327;28;20031;-80
2021/01/25 04:06:53;;;;;;;4.45;2.97;;;2.80;66.90;;;;;;4999491;28;20038;-81
2021/01/25 04:09:19;;;;;;;4.05;3.20;;;2.80;66.90;;;;;;4996467;28;20061;-81
2021/01/25 04:11:45;;;;;;;4.28;3.33;;;2.80;67.00;;;;;;4997600;28;20043;-81
2021/01/25 04:14:13;;;;;;;4.40;3.03;;;2.80;67.10;;;;;;4998415;28;20030;-80
2021/01/25 04:16:39;;;;;;;3.85;3.08;;;2.80;67.10;;;;;;5006469;28;20098;-81
2021/01/25 04:19:05;;;;;;;4.65;3.40;;;2.90;67.10;;;;;;5007737;28;20510;-80
2021/01/25 04:21:31;;;;;;;3.28;2.70;;;2.80;67.00;;;;;;5002401;28;20045;-81
2021/01/25 04:23:57;;;;;;;4.78;3.63;;;2.80;66.90;;;;;;4999461;28;20038;-80
2021/01/25 04:26:22;;;;;;;5.90;4.35;;;2.90;66.80;;;;;;5003461;28;20035;-81
2021/01/25 04:28:48;;;;;;;4.90;3.58;;;2.80;66.80;;;;;;4999798;28;20034;-81
2021/01/25 04:31:13;;;;;;;4.25;3.50;;;2.90;66.80;;;;;;4989618;28;20023;-80
2021/01/25 04:33:39;;;;;;;4.97;3.35;;;2.90;66.70;;;;;;4990896;28;20043;-81
2021/01/25 04:36:05;;;;;;;4.95;3.70;;;2.80;66.60;;;;;;4989301;28;20112;-80
2021/01/25 04:38:31;;;;;;;4.95;3.67;;;2.80;66.70;;;;;;4988246;28;20058;-80
2021/01/25 04:40:57;;;;;;;5.00;3.63;;;2.80;66.70;;;;;;4992783;28;20052;-81
2021/01/25 04:43:23;;;;;;;4.65;3.33;;;2.80;66.60;;;;;;4989645;28;20042;-80
2021/01/25 04:45:49;;;;;;;5.38;3.72;;;2.80;66.60;;;;;;4988804;28;20482;-81
2021/01/25 04:48:16;;;;;;;3.53;2.85;;;2.80;66.60;;;;;;4988615;28;20030;-80
2021/01/25 04:50:41;;;;;;;5.07;4.10;;;2.80;66.60;;;;;;4988729;28;20031;-81
2021/01/25 04:53:07;;;;;;;6.00;4.85;;;2.80;66.60;;;;;;4989103;28;20033;-81
2021/01/25 04:55:37;;;;;;;4.38;3.60;;;2.80;66.60;;;;;;4990177;28;20023;-78
2021/01/25 04:58:03;;;;;;;4.93;3.92;;;2.80;66.60;;;;;;4989763;28;20081;-79
2021/01/25 05:00:28;;;;;;;4.93;3.42;;;2.80;66.60;;;;;;4991208;28;20030;-79
2021/01/25 05:02:55;;;;;;;5.30;3.47;;;2.70;66.50;;;;;;4987808;28;20057;-79
2021/01/25 05:05:20;;;;;;;4.85;4.03;;;2.80;66.60;;;;;;4989767;28;20072;-80
2021/01/25 05:07:46;;;;;;;5.32;4.03;;;2.70;66.50;;;;;;4990226;28;20070;-80
2021/01/25 05:10:12;;;;;;;5.93;4.18;;;2.70;66.40;;;;;;4990636;28;20049;-80
2021/01/25 05:12:49;;;;;;;4.93;4.18;;;2.70;66.50;;;;;;4992841;28;20054;-81
2021/01/25 05:15:24;;;;;;;6.43;3.90;;;2.70;66.70;;;;;;4992004;28;20018;-81
2021/01/25 05:17:49;;;;;;;4.90;3.90;;;2.70;66.90;;;;;;4991303;28;20026;-80
2021/01/25 05:20:15;;;;;;;5.03;3.83;;;2.70;66.90;;;;;;4989986;28;20019;-82
2021/01/25 05:22:40;;;;;;;5.03;4.10;;;2.70;67.00;;;;;;4992044;28;20129;-80
2021/01/25 05:25:10;;;;;;;6.40;4.13;;;2.70;67.60;;;;;;4993370;28;20038;-80
2021/01/25 05:27:36;;;;;;;5.38;4.55;;;2.80;67.20;;;;;;4992622;28;20046;-80
2021/01/25 05:30:10;;;;;;;4.78;3.78;;;2.70;67.20;;;;;;4993743;28;20037;-80
2021/01/25 05:32:46;;;;;;;7.10;5.07;;;2.70;67.80;;;;;;4992425;28;20407;-80
2021/01/25 05:35:12;;;;;;;6.80;4.60;;;2.80;67.40;;;;;;4994033;28;20023;-80
2021/01/25 05:37:40;;;;;;;5.38;4.20;;;2.80;67.20;;;;;;4993846;28;20038;-81
2021/01/25 05:40:07;;;;;;;6.18;4.00;;;2.80;67.20;;;;;;4993155;28;20110;-81
2021/01/25 05:42:36;;;;;;;7.20;4.35;;;2.80;67.20;;;;;;4993295;28;20127;-81
2021/01/25 05:45:10;;;;;;;6.15;4.22;;;2.90;67.20;;;;;;4993547;28;20100;-80
2021/01/25 05:47:52;;;;;;;4.95;4.25;;;2.90;67.20;;;;;;4995251;28;20054;-80
2021/01/25 05:50:30;;;;;;;6.82;4.03;;;2.90;67.30;;;;;;4987723;28;20031;-79
2021/01/25 05:52:58;;;;;;;10.00;3.95;;;3.00;68.10;;;;;;4987987;28;20026;-81
2021/01/25 05:55:24;;;;;;;6.38;4.15;;;3.00;67.50;;;;;;4988255;28;20031;-80
2021/01/25 05:57:50;;;;;;;5.97;4.65;;;3.00;67.40;;;;;;4988017;28;20545;-79
2021/01/25 06:00:16;;;;;;;6.65;4.93;;;3.00;67.30;;;;;;4984688;28;20042;-81
2021/01/25 06:02:46;;;;;;;6.35;4.95;;;3.10;67.20;;;;;;4965977;28;20038;-81
2021/01/25 06:05:33;;;;;;;5.53;4.45;;;3.10;67.00;;;;;;4979493;28;20442;-81
2021/01/25 06:08:11;;;;;;;5.95;4.22;;;3.00;66.90;;;;;;4988534;28;20117;-79
2021/01/25 06:11:05;;;;;;;5.03;4.30;;;3.10;66.80;;;;;;4970198;28;20039;-80
2021/01/25 06:13:46;;;;;;;6.03;4.80;;;3.00;67.00;;;;;;4977512;28;20026;-80
2021/01/25 06:16:12;;;;;;;5.38;4.57;;;3.00;66.70;;;;;;4986682;28;20035;-80
2021/01/25 06:18:41;;;;;;;4.15;3.70;;;3.00;66.50;;;;;;4991833;28;20042;-80
2021/01/25 06:21:09;;;;;;;5.32;4.10;;;2.90;66.40;;;;;;4992731;28;20108;-80
2021/01/25 06:23:36;;;;;;;5.70;4.30;;;3.00;66.50;;;;;;4992352;28;20066;-80
2021/01/25 06:26:01;;;;;;;6.32;3.97;;;2.90;66.40;;;;;;4987817;28;20043;-80
2021/01/25 06:28:27;;;;;;;6.15;4.47;;;2.90;66.40;;;;;;4990104;28;20039;-79
2021/01/25 06:30:54;;;;;;;5.18;4.35;;;2.90;66.50;;;;;;4990275;28;20041;-79
2021/01/25 06:33:21;;;;;;;6.82;4.03;;;2.80;66.50;;;;;;4992358;28;21148;-81
2021/01/25 06:35:49;;;;;;;5.05;3.97;;;2.80;66.40;;;;;;4991247;28;20388;-78
2021/01/25 06:38:19;;;;;;;5.32;3.97;;;2.80;66.40;;;;;;4990464;28;20035;-80
2021/01/25 06:40:46;;;;;;;5.32;4.25;;;2.70;66.30;;;;;;4995638;28;20057;-80
2021/01/25 06:43:14;;;;;;;6.05;5.03;;;2.70;66.20;;;;;;4994180;28;20085;-81
2021/01/25 06:45:42;;;;;;;5.93;4.32;;;2.70;66.10;;;;;;4996122;28;20035;-82
2021/01/25 06:48:17;;;;;;;5.63;3.95;;;2.70;66.20;;;;;;4995180;28;20108;-81
2021/01/25 06:50:47;;;;;;;4.95;4.03;;;2.60;66.20;;;;;;4993155;28;20073;-80
2021/01/25 06:53:13;;;;;;;5.13;3.65;;;2.60;66.20;;;;;;4992506;28;20026;-81
2021/01/25 06:55:45;;;;;;;5.53;4.50;;;2.60;66.20;;;;;;4993006;28;20381;-81
2021/01/25 06:58:12;;;;;;;5.40;3.95;;;2.60;66.20;;;;;;4991207;28;20060;-78
2021/01/25 07:00:39;;;;;;;5.38;4.63;;;2.50;66.10;;;;;;4990807;28;20487;-82
2021/01/25 07:03:05;;;;;;;6.63;3.95;;;2.50;66.20;;;;;;4990947;28;20026;-82
2021/01/25 07:05:32;;;;;;;5.72;4.63;;;2.40;66.20;;;;;;4994879;28;20048;-81
2021/01/25 07:08:23;;;;;;;7.00;4.88;;;2.40;66.20;;;;;;4993936;28;20042;-79
2021/01/25 07:10:57;;;;;;;5.65;4.65;;;2.40;66.30;;;;;;4994106;28;20026;-81
2021/01/25 07:13:24;;;;;;;5.93;4.15;;;2.30;66.20;;;;;;4985923;28;20038;-82
2021/01/25 07:15:51;;;;;;;6.10;4.18;;;2.30;66.10;;;;;;4991472;28;20815;-84
2021/01/25 07:18:19;;;;;;;5.03;4.32;;;2.20;66.00;;;;;;4989391;28;20038;-83
2021/01/25 07:20:49;;;;;;;6.72;4.75;;;2.30;66.10;;;;;;4990588;28;20035;-81
2021/01/25 07:23:19;;;;;;;6.05;4.30;;;2.20;66.10;;;;;;4987474;28;20497;-81
2021/01/25 07:25:52;;;;;;;5.50;4.00;;;2.20;66.10;;;;;;4989737;28;20038;-83
2021/01/25 07:28:17;;;;;;;6.97;4.43;;;2.10;66.00;;;;;;4989825;28;20030;-82
2021/01/25 07:30:43;;;;;;;7.07;4.20;;;2.20;66.00;;;;;;4991043;28;20858;-82
2021/01/25 07:33:08;;;;;;;6.35;4.15;;;2.10;66.10;;;;;;4991616;28;20027;-81
2021/01/25 07:35:34;;;;;;;6.47;4.80;;;2.10;66.30;;;;;;4993840;28;20050;-82
2021/01/25 07:38:00;;;;;;;6.43;5.00;;;2.10;66.50;;;;;;4988519;28;20026;-82
2021/01/25 07:40:28;;;;;;;7.05;4.88;;;2.10;66.50;;;;;;4993008;28;20029;-81
2021/01/25 07:43:42;;;;;;;6.70;4.88;;;2.10;66.60;;;;;;4998267;28;20026;-84
2021/01/25 07:46:09;;;;;;;6.60;4.88;;;2.10;67.00;;;;;;4969615;28;20026;-82
2021/01/25 07:48:50;;;;;;;8.15;4.18;;;2.00;66.70;;;;;;4991954;28;20688;-81
2021/01/25 07:51:27;;;;;;;5.70;4.20;;;2.10;67.00;;;;;;4984492;28;20041;-78
2021/01/25 07:53:54;;;;;;;6.45;4.80;;;2.20;67.20;;;;;;4992443;28;20026;-79
2021/01/25 07:56:24;;;;;;;6.57;4.65;;;2.20;67.30;;;;;;4990575;28;20034;-78
2021/01/25 07:58:50;;;;;;;7.78;4.72;;;2.20;67.40;;;;;;4986185;28;20387;-79
2021/01/25 08:01:21;;;;;;;7.53;4.57;;;2.30;67.40;;;;;;4985096;28;20026;-78
2021/01/25 08:03:50;;;;;;;6.32;5.07;;;2.30;67.50;;;;;;4983303;28;20034;-77
2021/01/25 08:06:16;;;;;;;8.35;5.40;;;2.40;67.60;;;;;;4988829;28;20030;-77
2021/01/25 08:08:46;;;;;;;7.63;5.43;;;2.40;67.60;;;;;;4988298;28;20034;-82
2021/01/25 08:11:12;;;;;;;8.67;5.63;;;2.40;67.70;;;;;;4998850;28;20027;-83
2021/01/25 08:13:46;;;;;;;7.60;5.60;;;2.50;67.80;;;;;;4991038;28;20030;-83
2021/01/25 08:16:17;;;;;;;7.35;5.68;;;2.60;67.80;;;;;;5003366;28;20068;-81
2021/01/25 08:19:07;;;;;;;7.07;5.05;;;2.60;67.70;;;;;;5007081;28;20077;-81
2021/01/25 08:21:39;;;;;;;7.18;4.63;;;2.70;67.80;;;;;;5000916;28;20496;-82
2021/01/25 08:24:07;;;;;;;6.03;4.80;;;2.70;67.60;;;;;;4994754;28;20258;-83
2021/01/25 08:26:34;;;;;;;6.43;4.63;;;2.80;67.60;;;;;;4997487;28;20050;-84
2021/01/25 08:29:04;;;;;;;6.47;5.50;;;2.80;67.60;;;;;;5072828;22;20048;-77
2021/01/25 08:31:36;;;;;;;6.85;5.80;;;2.80;67.50;;;;;;5046450;28;20115;-77
2021/01/25 08:34:21;;;;;;;5.80;4.38;;;2.90;67.60;;;;;;5046161;28;20058;-75
2021/01/25 08:37:01;;;;;;;7.15;5.68;;;2.90;67.60;;;;;;5042439;28;20120;-77
2021/01/25 08:39:40;;;;;;;6.30;5.25;;;2.90;67.50;;;;;;5039069;28;20038;-75
2021/01/25 08:42:11;;;;;;;6.68;5.03;;;3.00;67.60;;;;;;5036582;28;20033;-78
2021/01/25 08:44:41;;;;;;;;;;;3.00;67.60;;;;;;5038216;28;20036;-76
2021/01/25 08:47:08;;;;;;;5.15;4.05;;;3.00;68.00;;;;;;5029477;28;20422;-77
2021/01/25 08:49:43;;;;;;;7.43;5.40;;;3.10;67.40;;;;;;5038955;28;20065;-78
2021/01/25 08:52:22;;;;;;;5.63;4.78;;;3.10;67.60;;;;;;5032988;28;20058;-77
2021/01/25 08:54:48;;;;;;;6.35;5.18;;;3.20;67.50;;;;;;5040643;28;20120;-76
2021/01/25 08:57:34;;;;;;;7.00;5.15;;;3.20;67.40;;;;;;5038820;28;20116;-77
2021/01/25 09:00:17;;;;;;;7.05;5.20;;;3.20;67.60;;;;;;5034818;28;20052;-78
2021/01/25 09:02:44;;;;;;;6.03;4.32;;;3.20;67.40;;;;;;5032056;28;20111;-78
2021/01/25 09:05:13;;;;;;;9.82;5.75;;;3.20;67.20;;;;;;5039916;28;20035;-76
2021/01/25 09:07:38;;;;;;;8.52;5.35;;;3.20;67.30;;;;;;5030104;28;20613;-76
2021/01/25 09:10:06;;;;;;;8.00;5.75;;;3.30;67.50;;;;;;5037121;28;20025;-78
2021/01/25 09:12:31;;;;;;;6.90;5.38;;;3.30;67.50;;;;;;5036855;28;20042;-79
2021/01/25 09:14:57;;;;;;;8.35;5.88;;;3.30;67.60;;;;;;5035719;28;20036;-78
2021/01/25 09:17:24;;;;;;;7.57;5.22;;;3.30;67.80;;;;;;5031039;28;20034;-79
2021/01/25 09:19:50;;;;;;;8.05;5.70;;;3.40;68.10;;;;;;5038419;28;20037;-78
2021/01/25 09:22:16;;;;;;;10.00;5.68;;;3.40;68.20;;;;;;5033644;28;20060;-78
2021/01/25 09:24:42;;;;;;;8.48;6.05;;;3.40;68.20;;;;;;5039360;28;20068;-79
2021/01/25 09:27:09;;;;;;;9.93;6.88;;;3.60;68.20;;;;;;5034873;28;20033;-79
2021/01/25 09:29:35;;;;;;;8.10;6.22;;;3.60;68.20;;;;;;5035468;28;20909;-79
2021/01/25 09:32:00;;;;;;;7.80;5.32;;;3.60;68.20;;;;;;5032462;28;20044;-79
2021/01/25 09:34:26;;;;;;;8.95;6.05;;;3.70;68.30;;;;;;5035758;28;20041;-76
2021/01/25 09:36:52;;;;;;;8.07;6.65;;;3.70;68.30;;;;;;5039063;28;20112;-76
2021/01/25 09:39:18;;;;;;;8.80;6.43;;;3.80;68.40;;;;;;5031967;28;20403;-77
2021/01/25 09:41:45;;;;;;;9.90;6.35;;;3.80;68.30;;;;;;5038450;28;20037;-78
2021/01/25 09:44:11;;;;;;;8.85;6.35;;;3.90;68.30;;;;;;5034134;28;20032;-79
2021/01/25 09:46:36;;;;;;;10.00;6.78;;;4.00;68.30;;;;;;5039037;28;20073;-80
2021/01/25 09:49:02;;;;;;;8.93;6.90;;;4.00;68.30;;;;;;5037711;28;20087;-81
2021/01/25 09:51:28;;;;;;;9.15;6.35;;;4.00;68.20;;;;;;5038963;28;20030;-82
2021/01/25 09:53:53;;;;;;;9.43;6.60;;;4.10;68.20;;;;;;5032622;28;20033;-82
2021/01/25 09:56:19;;;;;;;8.35;6.65;;;4.10;68.10;;;;;;5038116;28;20487;-79
2021/01/25 09:58:44;;;;;;;8.27;6.57;;;4.10;68.10;;;;;;5036203;28;20082;-80
2021/01/25 10:01:10;;;;;;;8.82;6.95;;;4.20;68.10;;;;;;5038761;28;20046;-77
2021/01/25 10:03:35;;;;;;;7.93;5.88;;;4.20;68.20;;;;;;5030241;28;20043;-80
2021/01/25 10:06:01;;;;;;;10.02;6.95;;;4.20;68.20;;;;;;5041804;28;20163;-80
2021/01/25 10:08:26;;;;;;;7.88;6.25;;;4.30;68.40;;;;;;5020895;28;20056;-76
2021/01/25 10:10:52;;;;;;;9.27;6.95;;;4.30;68.40;;;;;;5036306;28;20033;-78
2021/01/25 10:13:17;;;;;;;10.48;6.50;;;4.40;68.50;;;;;;5034285;28;20036;-79
2021/01/25 10:15:43;;;;;;;9.57;6.85;;;4.40;68.40;;;;;;5040062;28;20044;-80
2021/01/25 10:18:09;;;;;;;9.38;7.47;;;4.50;68.50;;;;;;5035244;28;20449;-78
2021/01/25 10:20:35;;;;;;;9.48;6.80;;;4.60;68.50;;;;;;5037835;28;20044;-79
2021/01/25 10:23:00;;;;;;;10.13;8.13;;;4.70;68.60;;;;;;5034253;28;20026;-79
2021/01/25 10:25:25;;;;;;;8.40;6.80;;;4.60;68.60;;;;;;5035259;28;20502;-78
2021/01/25 10:27:51;;;;;;;7.65;6.53;;;4.60;68.60;;;;;;5036195;28;20037;-78
2021/01/25 10:30:18;;;;;;;10.52;6.72;;;4.70;68.70;;;;;;5038149;28;20100;-77
2021/01/25 10:32:44;;;;;;;9.38;7.20;;;4.70;68.70;;;;;;5033625;28;20044;-78
2021/01/25 10:35:11;;;;;;;8.00;6.28;;;4.80;68.90;;;;;;5034692;28;20021;-78
2021/01/25 10:37:37;;;;;;;8.75;7.00;;;4.80;68.90;;;;;;5027326;28;20038;-76
2021/01/25 10:40:04;;;;;;;7.55;5.95;;;4.90;68.90;;;;;;5032054;28;20563;-78
2021/01/25 10:42:30;;;;;;;7.57;5.90;;;4.90;68.90;;;;;;5035627;28;20478;-77
2021/01/25 10:44:55;;;;;;;9.95;6.90;;;5.10;69.00;;;;;;5012844;28;20064;-77
2021/01/25 10:47:21;;;;;;;8.13;6.60;;;5.10;69.10;;;;;;5020844;28;20036;-79
2021/01/25 10:49:50;;;;;;;8.75;6.60;;;5.10;69.10;;;;;;5033160;28;20056;-77
2021/01/25 10:52:17;;;;;;;8.82;6.32;;;5.20;69.20;;;;;;5030959;28;21893;-78
2021/01/25 10:54:43;;;;;;;7.78;6.13;;;5.30;69.40;;;;;;5037631;28;20041;-78
2021/01/25 10:57:09;;;;;;;7.72;5.90;;;5.30;69.40;;;;;;5030864;28;20029;-78
2021/01/25 10:59:35;;;;;;;7.38;6.32;;;5.40;69.20;;;;;;5034598;28;20515;-78
2021/01/25 11:02:03;;;;;;;7.68;5.65;;;5.50;69.30;;;;;;5034989;28;20032;-77
2021/01/25 11:04:28;;;;;;;8.07;5.47;;;5.60;69.20;;;;;;5029439;28;20037;-79
2021/01/25 11:06:54;;;;;;;7.78;6.55;;;5.60;69.10;;;;;;5032418;28;20037;-78
2021/01/25 11:09:20;;;;;;;8.30;6.57;;;5.60;69.10;;;;;;5031460;28;20045;-76
2021/01/25 11:11:45;;;;;;;8.68;6.15;;;5.60;69.10;;;;;;5031358;28;20036;-76
2021/01/25 11:14:11;;;;;;;8.07;6.57;;;5.60;69.20;;;;;;5035553;28;20079;-79
2021/01/25 11:16:36;;;;;;;7.97;5.50;;;5.70;69.20;;;;;;5024623;28;20083;-79
2021/01/25 11:19:02;;;;;;;9.30;6.07;;;5.70;69.20;;;;;;5038269;28;20028;-77
2021/01/25 11:21:27;;;;;;;6.80;5.43;;;5.80;69.20;;;;;;5013277;28;20026;-78
2021/01/25 11:23:53;;;;;;;7.70;5.80;;;5.90;69.20;;;;;;5034512;28;20037;-78
2021/01/25 11:26:20;;;;;;;7.07;5.70;;;5.90;69.10;;;;;;5031804;28;20036;-76
2021/01/25 11:28:46;;;;;;;6.70;5.40;;;5.90;69.10;;;;;;5036089;28;20502;-77
2021/01/25 11:31:13;;;;;;;6.38;5.00;;;6.00;69.20;;;;;;5023431;28;20613;-79
2021/01/25 11:33:38;;;;;;;7.10;5.22;;;6.00;69.20;;;;;;5021787;28;20120;-79
2021/01/25 11:36:04;;;;;;;8.93;5.78;;;6.10;69.30;;;;;;5031206;28;20562;-75
2021/01/25 11:38:31;;;;;;;8.73;6.20;;;6.10;69.20;;;;;;5028334;28;20037;-77
2021/01/25 11:40:56;;;;;;;6.93;4.55;;;6.20;69.20;;;;;;5037341;28;20034;-77
2021/01/25 11:43:22;;;;;;;6.68;4.93;;;6.20;69.20;;;;;;5035618;28;20029;-77
2021/01/25 11:45:50;;;;;;;6.47;5.32;;;6.20;69.30;;;;;;5032637;28;20033;-77
2021/01/25 11:48:19;;;;;;;6.43;4.80;;;6.30;69.40;;;;;;5032810;28;20026;-78
2021/01/25 11:50:46;;;;;;;5.75;4.45;;;6.40;69.50;;;;;;5037951;28;20030;-78
2021/01/25 11:53:12;;;;;;;6.22;4.90;;;6.50;69.60;;;;;;5037037;28;20029;-75
2021/01/25 11:55:38;;;;;;;5.15;4.45;;;6.50;69.50;;;;;;5040080;28;20052;-76
2021/01/25 11:58:04;;;;;;;6.97;4.75;;;6.60;69.50;;;;;;5029499;28;20522;-77
2021/01/25 12:00:30;;;;;;;5.85;4.38;;;6.60;69.60;;;;;;5033858;28;20025;-76
2021/01/25 12:02:55;;;;;;;5.63;4.45;;;6.70;69.60;;;;;;5035573;28;20025;-77
2021/01/25 12:05:21;;;;;;;6.15;4.57;;;6.70;69.60;;;;;;5037744;28;20022;-77
2021/01/25 12:07:46;;;;;;;6.40;5.00;;;6.80;69.70;;;;;;5024479;28;20032;-76
2021/01/25 12:10:12;;;;;;;7.35;5.20;;;6.80;69.60;;;;;;5026513;28;20036;-78
2021/01/25 12:12:38;;;;;;;6.03;4.93;;;6.90;69.50;;;;;;5035011;28;20033;-77
2021/01/25 12:15:05;;;;;;;8.90;5.57;;;6.90;69.40;;;;;;5033401;28;20386;-77
2021/01/25 12:17:30;;;;;;;5.97;4.65;;;7.00;69.30;;;;;;5033459;28;20026;-79
2021/01/25 12:19:56;;;;;;;7.18;5.40;;;7.20;69.80;;;;;;5031021;28;20055;-77
2021/01/25 12:22:21;;;;;;;5.93;5.00;;;7.10;69.20;;;;;;5031443;28;20045;-78
2021/01/25 12:24:47;;;;;;;6.70;4.97;;;7.10;69.30;;;;;;5040278;28;20098;-79
2021/01/25 12:27:12;;;;;;;6.05;4.75;;;7.20;69.40;;;;;;5036898;28;20083;-77
2021/01/25 12:29:38;;;;;;;6.90;5.18;;;7.20;69.30;;;;;;5036393;28;20045;-77
2021/01/25 12:32:03;;;;;;;6.70;4.78;;;7.30;69.40;;;;;;5032403;28;20045;-78
2021/01/25 12:34:29;;;;;;;6.65;5.05;;;7.30;69.30;;;;;;5031723;28;20034;-78
2021/01/25 12:36:55;;;;;;;5.60;4.50;;;7.40;69.40;;;;;;5013519;28;20045;-78
2021/01/25 12:39:20;;;;;;;7.47;4.60;;;7.40;69.30;;;;;;5030143;28;20419;-80
2021/01/25 12:41:46;;;;;;;5.57;4.18;;;7.40;69.20;;;;;;5019859;28;20037;-78
2021/01/25 12:44:12;;;;;;;5.90;4.88;;;7.50;69.40;;;;;;5036159;28;20025;-78
2021/01/25 12:46:37;;;;;;;5.88;4.47;;;7.60;69.30;;;;;;5032027;28;20044;-77
2021/01/25 12:49:04;;;;;;;6.25;5.28;;;7.60;69.20;;;;;;5032678;28;20401;-80
2021/01/25 12:51:31;;;;;;;7.57;5.47;;;7.70;68.90;;;;;;5036779;28;20025;-77
2021/01/25 12:53:56;;;;;;;6.40;4.53;;;7.70;68.70;;;;;;5029176;28;20402;-78
2021/01/25 12:56:22;;;;;;;7.05;4.85;;;7.90;68.70;;;;;;5035198;28;20034;-77
2021/01/25 12:58:47;;;;;;;6.05;4.80;;;7.80;68.50;;;;;;5036190;28;20040;-78